Latest Coastal Weather Observations for Brisbane Airport

IDQ60701

Issued at 4:42 pm EST Saturday 20 April 2024 (issued every 10 minutes, with the page automatically refreshed every 10 minutes)

About coastal observations | Map of coastal stations | Coastal observations for QLD | Marine services | Other Formats
Station Details ID: 040842 Name: BRISBANE AERO Lat: -27.39 Lon: 153.13 Height: 4.51 m
Data from the previous 72 hours. | See also: Recent months at Brisbane Airport
Date/Time
EST
Wind Sea
Height
m
Swell Vis
km
Cloud Weather Temp
°C
Press
MSL
hPa
Rain since
9am
mm
Dir  Spd
kts
Gust
kts
Height
m
Period
s
Dir
20/04:30pm SW 8 11 - - - - 10 Mostly clear - 20.9 1017.5 0.0
20/04:00pm SW 11 13 - - - - 10 Mostly clear - 21.4 1017.2 0.0
20/03:30pm SSW 7 8 - - - - 10 Mostly clear - 22.2 1016.0 0.0
20/03:00pm SW 9 10 - - - - 25 Mostly cloudy Rain 21.9 1015.9 0.0
20/02:30pm SSW 5 8 - - - - 10 Mostly clear - 21.4 1016.2 0.0
20/02:00pm ESE 3 6 - - - - 10 Mostly clear - 21.1 1015.9 0.0
20/01:30pm E 5 7 - - - - 10 Mostly clear Rain 22.0 1016.6 0.0
20/01:00pm ESE 6 11 - - - - 10 Mostly clear - 22.7 1016.2 0.0
20/12:30pm SE 7 9 - - - - 10 Mostly clear - 23.0 1016.4 0.0
20/12:00pm SSE 6 9 - - - - 30 Mostly cloudy Fine 23.5 1016.7 0.0
20/11:30am SE 7 14 - - - - 10 Mostly clear - 23.7 1016.3 0.0
20/11:00am ESE 8 18 - - - - 10 Mostly clear - 24.1 1016.7 0.0
20/10:30am SSE 8 15 - - - - 10 Mostly clear - 25.2 1017.3 0.0
20/10:00am SSE 7 10 - - - - 10 Mostly clear - 23.7 1017.8 0.0
20/09:30am S 9 14 - - - - 10 Mostly clear - 23.2 1018.2 0.0
20/09:00am S 8 13 - - - - 30 Mostly clear Fine 22.3 1018.1 0.0
20/08:30am SSW 8 10 - - - - 10 Mostly clear - 21.1 1018.6 0.0
20/08:00am S 7 10 - - - - 10 Mostly clear - 20.4 1018.0 0.0
20/07:30am SSW 9 10 - - - - 10 Mostly clear - 18.9 1017.9 0.0
20/07:00am SSW 7 10 - - - - 10 Mostly clear - 17.6 1017.5 0.0
20/06:30am SSW 8 12 - - - - 10 Mostly clear - 17.2 1017.0 0.0
20/06:00am SSW 7 10 - - - - 30 Mostly clear Fine 17.5 1016.5 0.0
20/05:30am SSW 5 6 - - - - 10 - - 17.6 1016.3 0.0
20/05:00am SSW 6 7 - - - - 10 - - 17.4 1016.2 0.0
20/04:30am SSW 6 8 - - - - 10 - - 16.6 1016.0 0.0
20/04:00am SSW 6 8 - - - - 10 - - 16.9 1015.7 0.0
20/03:30am SSW 6 8 - - - - 10 - - 18.0 1015.6 0.0
20/03:00am SSW 7 10 - - - - 10 - - 18.2 1015.6 0.0
20/02:30am SSW 7 8 - - - - 10 - - 17.3 1015.9 0.0
20/02:00am SSW 7 9 - - - - 10 - - 18.6 1016.2 0.0
20/01:30am SSW 6 7 - - - - 10 Partly cloudy - 19.2 1016.1 0.0
20/01:00am SSW 6 7 - - - - 10 Partly cloudy - 18.7 1016.5 0.0
20/12:30am SSW 5 6 - - - - 10 Partly cloudy - 18.2 1016.8 0.0
20/12:00am S 4 5 - - - - 10 Mostly clear - 19.0 1017.1 0.0
 
Date/Time
EST
Wind Sea
Height
m
Swell Vis
km
Cloud Weather Temp
°C
Press
MSL
hPa
Rain since
9am
mm
Dir  Spd
kts
Gust
kts
Height
m
Period
s
Dir
19/11:30pm SE 4 7 - - - - 10 - - 19.9 1016.9 0.0
19/11:00pm SSE 7 11 - - - - 10 - - 20.0 1016.7 0.0
19/10:30pm S 5 6 - - - - 10 - - 19.7 1017.0 0.0
19/10:00pm SSW 5 7 - - - - 10 Mostly clear - 19.3 1017.3 0.0
19/09:30pm S 4 5 - - - - 10 Mostly clear - 20.4 1017.3 0.0
19/09:00pm SE 4 5 - - - - 40 Mostly clear Fine 20.9 1017.2 0.0
19/08:30pm CALM 0 3 - - - - 10 Mostly clear - 21.4 1017.0 0.0
19/08:00pm E 4 6 - - - - 10 Mostly clear - 21.9 1016.9 0.0
19/07:30pm E 4 7 - - - - 10 Mostly clear - 22.0 1016.5 0.0
19/07:00pm E 4 7 - - - - 10 Mostly clear - 22.2 1016.1 0.0
19/06:30pm E 5 7 - - - - 10 Mostly clear - 22.4 1015.7 0.0
19/06:00pm E 6 8 - - - - 40 Mostly clear Fine 22.4 1015.1 0.0
19/05:30pm E 6 9 - - - - 10 Mostly clear - 22.5 1014.8 0.0
19/05:00pm E 7 10 - - - - 10 Mostly clear - 23.3 1014.4 0.0
19/04:30pm ENE 8 11 - - - - 10 Mostly clear - 24.0 1014.0 0.0
19/04:00pm E 7 11 - - - - 10 Mostly clear - 24.4 1013.6 0.0
19/03:30pm E 8 13 - - - - 10 Mostly clear - 24.7 1013.5 0.0
19/03:00pm E 9 13 - - - - 30 Mostly clear Fine 24.9 1013.4 0.0
19/02:30pm E 8 12 - - - - 10 Mostly clear - 25.1 1013.4 0.0
19/02:00pm E 8 14 - - - - 10 Mostly clear - 25.5 1013.3 0.0
19/01:30pm E 8 13 - - - - 10 Mostly clear - 25.2 1013.4 0.0
19/01:00pm E 8 11 - - - - 10 Mostly clear - 25.2 1013.6 0.0
19/12:30pm ENE 7 12 - - - - 10 Mostly clear - 25.0 1013.9 0.0
19/12:00pm E 7 9 - - - - 30 Mostly clear Fine 24.9 1014.4 0.0
19/11:30am E 6 10 - - - - 10 Mostly clear - 24.9 1014.9 0.0
19/11:00am SE 6 9 - - - - 10 Mostly clear - 25.0 1015.2 0.0
19/10:30am S 6 10 - - - - 10 Mostly clear - 24.6 1015.2 0.0
19/10:00am S 6 9 - - - - 10 Mostly clear - 24.3 1015.5 0.0
19/09:30am S 6 9 - - - - 10 Mostly clear - 23.6 1015.4 0.0
19/09:00am SSW 8 11 - - - - 30 Mostly clear Fine 23.0 1015.2 0.2
19/08:30am SSW 6 10 - - - - 10 Mostly clear - 21.9 1015.2 0.2
19/08:00am S 6 8 - - - - 10 Mostly clear - 21.1 1015.0 0.2
19/07:30am SSW 5 7 - - - - 10 Mostly clear - 20.4 1014.8 0.2
19/07:00am SSW 7 8 - - - - 10 Mostly clear - 19.2 1014.6 0.2
19/06:30am SSW 7 10 - - - - 10 Mostly clear - 18.2 1014.3 0.2
19/06:00am SSW 10 14 - - - - 15 Partly cloudy Fine 18.7 1013.9 0.2
19/05:30am SSW 7 9 - - - - 10 Cloudy - 19.0 1013.6 0.2
19/05:00am SSW 6 8 - - - - 10 Cloudy - 18.9 1013.2 0.2
19/04:33am SSW 5 6 - - - - 10 Partly cloudy - 18.7 1013.0 0.2
19/04:30am SSW 5 6 - - - - 10 Partly cloudy - 18.4 1013.0 0.2
19/04:00am SSW 1 4 - - - - 10 - - 18.3 1012.8 0.2
19/03:30am SW 5 6 - - - - 10 - - 18.3 1012.9 0.2
19/03:00am SW 4 5 - - - - 10 - - 18.0 1012.9 0.2
19/02:30am WSW 3 5 - - - - 10 - - 18.7 1013.1 0.2
19/02:00am WSW 2 6 - - - - 10 - - 19.1 1013.4 0.2
19/01:30am CALM 0 0 - - - - 10 - - 19.0 1013.8 0.2
19/01:00am SSE 1 4 - - - - 10 - - 19.3 1014.3 0.2
19/12:30am CALM 0 0 - - - - 10 - - 20.3 1014.7 0.2
19/12:00am SSE 4 5 - - - - 10 Mostly clear - 20.8 1015.0 0.2
 
Date/Time
EST
Wind Sea
Height
m
Swell Vis
km
Cloud Weather Temp
°C
Press
MSL
hPa
Rain since
9am
mm
Dir  Spd
kts
Gust
kts
Height
m
Period
s
Dir
18/11:30pm SSW 5 6 - - - - 10 Partly cloudy - 20.9 1015.5 0.2
18/11:00pm S 5 8 - - - - 10 Partly cloudy - 21.2 1015.3 0.2
18/10:30pm SW 6 8 - - - - 10 Partly cloudy - 21.0 1015.5 0.2
18/10:00pm WSW 4 6 - - - - 10 Mostly cloudy - 20.7 1015.2 0.2
18/09:30pm WNW 2 4 - - - - 10 Partly cloudy - 20.5 1015.0 0.2
18/09:00pm NE 3 4 - - - - 30 Mostly cloudy Fine 20.3 1015.0 0.2
18/08:30pm NE 3 4 - - - - 10 Mostly clear - 21.2 1014.9 0.2
18/08:00pm CALM 0 0 - - - - 10 Mostly clear - 20.9 1015.1 0.2
18/07:30pm NNE 5 6 - - - - 10 Mostly clear - 20.8 1014.9 0.2
18/07:00pm NE 3 4 - - - - 10 Mostly clear - 21.4 1015.0 0.2
18/06:30pm NNE 4 5 - - - - 10 Partly cloudy - 21.5 1014.6 0.2
18/06:00pm NE 4 6 - - - - 30 Partly cloudy Fine 21.4 1014.4 0.2
18/05:30pm NNE 5 6 - - - - 10 Mostly clear - 21.6 1014.4 0.2
18/05:00pm NE 6 7 - - - - 10 Partly cloudy - 23.1 1014.4 0.2
18/04:30pm NE 8 12 - - - - 10 Mostly clear - 23.8 1014.1 0.2
18/04:00pm NE 7 9 - - - - 10 Mostly clear - 23.9 1014.2 0.2
18/03:30pm NE 8 9 - - - - 10 Mostly clear - 23.7 1014.4 0.2
18/03:00pm NE 9 11 - - - - 30 Mostly cloudy Fine 23.9 1014.6 0.2
18/02:30pm NE 7 10 - - - - 10 Mostly clear - 24.6 1014.7 0.2
18/02:00pm ENE 5 9 - - - - 10 Mostly clear - 24.5 1015.0 0.2
18/01:30pm ENE 6 8 - - - - 10 Mostly clear - 24.9 1015.2 0.2
18/01:00pm NE 5 7 - - - - 10 Mostly clear - 24.6 1015.6 0.2
18/12:30pm NE 6 8 - - - - 10 Mostly clear - 24.1 1016.1 0.2
18/12:00pm ENE 7 10 - - - - 30 Mostly cloudy Recent precip. 23.2 1016.7 0.2
18/11:30am E 7 11 - - - - 10 Mostly clear Showers 24.4 1017.2 0.2
18/11:00am ESE 3 7 - - - - 10 Mostly clear - 24.8 1017.6 0.0
18/10:30am E 5 6 - - - - 10 Mostly clear - 24.1 1018.1 0.0
18/10:00am E 6 10 - - - - 10 Mostly clear - 23.9 1018.2 0.0
18/09:30am E 5 7 - - - - 10 Mostly clear - 23.4 1018.5 0.0
18/09:00am ENE 4 6 - - - - 30 Mostly cloudy Fine 22.6 1018.7 0.8
18/08:30am NE 7 9 - - - - 10 Mostly clear - 21.9 1018.9 0.8
18/08:00am SE 2 6 - - - - 10 Mostly clear - 21.3 1018.9 0.8
18/07:39am E 4 6 - - - - 6 Mostly clear Showers 20.5 1019.0 0.8
18/07:30am SE 5 9 - - - - 4 Mostly clear Showers 20.2 1019.0 0.4
18/07:17am SSE 4 6 - - - - 6 Partly cloudy Showers 20.2 1018.9 0.0
18/07:00am SSE 4 8 - - - - 10 Mostly clear - 19.9 1018.4 0.0
18/06:30am SSW 6 7 - - - - 10 Mostly clear - 19.6 1018.1 0.0
18/06:00am SSW 7 8 - - - - 30 Mostly cloudy Fine 19.0 1017.9 0.0
18/05:30am SSW 6 7 - - - - 10 - - 18.6 1017.9 0.0
18/05:00am SSW 7 9 - - - - 10 - - 19.1 1017.9 0.0
18/04:30am SSW 6 8 - - - - 10 - - 19.4 1017.7 0.0
18/04:00am SSW 6 8 - - - - 10 - - 19.6 1017.7 0.0
18/03:30am SSW 5 7 - - - - 10 Partly cloudy - 19.5 1018.0 0.0
18/03:00am SSW 7 8 - - - - 10 Partly cloudy - 20.3 1018.3 0.0
18/02:30am SSW 5 6 - - - - 10 Partly cloudy - 20.2 1018.7 0.0
18/02:00am SSW 5 6 - - - - 10 Partly cloudy - 21.2 1019.0 0.0
18/01:30am SSW 6 7 - - - - 10 Partly cloudy - 21.2 1019.0 0.0
18/01:00am S 6 7 - - - - 10 Partly cloudy - 21.4 1019.6 0.0
18/12:30am SSW 6 8 - - - - 10 Partly cloudy - 21.6 1019.9 0.0
18/12:00am SSW 5 6 - - - - 10 Mostly clear - 21.5 1019.9 0.0
 
Date/Time
EST
Wind Sea
Height
m
Swell Vis
km
Cloud Weather Temp
°C
Press
MSL
hPa
Rain since
9am
mm
Dir  Spd
kts
Gust
kts
Height
m
Period
s
Dir
17/11:30pm SSE 2 5 - - - - 10 Partly cloudy - 21.6 1020.3 0.0
17/11:00pm ESE 3 5 - - - - 10 Partly cloudy - 22.9 1020.6 0.0
17/10:30pm ESE 4 6 - - - - 10 Partly cloudy - 23.2 1020.8 0.0
17/10:00pm E 3 5 - - - - 10 Mostly clear - 23.0 1020.8 0.0
17/09:30pm ESE 4 5 - - - - 10 Mostly clear - 23.4 1020.9 0.0
17/09:00pm E 4 7 - - - - 30 Mostly cloudy Fine 23.5 1020.9 0.0
17/08:30pm ESE 3 5 - - - - 10 Mostly clear - 23.5 1020.9 0.0
17/08:00pm E 3 5 - - - - 10 Mostly clear - 23.6 1020.8 0.0
17/07:30pm ENE 5 6 - - - - 10 Mostly clear - 23.8 1020.7 0.0
17/07:00pm ENE 5 7 - - - - 10 Mostly clear - 23.7 1020.4 0.0
17/06:30pm E 6 10 - - - - 10 Mostly clear - 23.7 1020.0 0.0
17/06:00pm ENE 6 8 - - - - 30 Mostly cloudy Fine 23.5 1019.8 0.0
17/05:30pm E 6 9 - - - - 10 Mostly clear - 24.0 1019.6 0.0
17/05:00pm E 7 9 - - - - 10 Mostly clear - 24.3 1019.6 0.0

Other formats

Comma delimited format used in spreadsheet applications
http://www.bom.gov.au/fwo/IDQ60701/IDQ60701.94578.axf

JavaScript Object Notation format (JSON) in row-major order
http://www.bom.gov.au/fwo/IDQ60701/IDQ60701.94578.json

Data quality

Most of these data are generated automatically and are frequently updated. Quality checks on data are not normally performed. It is possible for incorrect values to appear. Refer to information at About Latest Weather Observations and please check the disclaimer before using these data.